Decoded METAR Reports


Created by using MetarWeather

Station Name Location Elevation Time Temperature Dew Point RH Heat Index Wind Visibility Pressure Sky Condition Weather Remarks METAR
Alexandroupolis  40.85N 25.92E  3m  02/09/2015 23:20:00  22.0C  18.0C  78%  22.5C  Calm  > 10000m  1009.1 mb           LGAL 022020Z 00000KT CAVOK 22/18 Q1009 
Andravida (Civ/A  37.92N 21.27E  12m  02/09/2015 23:20:00  24.0C  21.0C  83%  24.1C  Calm  > 10000m  1012.9 mb  Few clouds at 610m
 
      LGAD 022020Z 00000KT 9999 FEW020 24/21 Q1013 
Araxos (Civ/Afb)  38.17N 21.42E  15m  02/09/2015 22:50:00  25.0C  23.0C  89%  25.7C  Calm  > 10000m  1011.9 mb           LGRX 021950Z 00000KT CAVOK 25/23 Q1012 
Athens/Elef-Ven  37.93N 23.95E  94m  02/09/2015 23:20:00  22.0C  17.0C  73%  23.1C  4 km/h, SE (130 degrees)  > 10000m  1011.9 mb  Few clouds at 760m
 
      LGAV 022020Z 13002KT 9999 FEW025 22/17 Q1012 NOSIG 
Chios Airport  38.32N 26.12E  4m  02/09/2015 22:50:00  23.0C  20.0C  83%  22.8C  Calm  > 10000m  1010.8 mb           LGHI 021950Z 00000KT CAVOK 23/20 Q1011 
Elefsis (Hel-Afb  38.07N 23.55E  31m  02/09/2015 23:20:00  23.0C  16.0C  65%  24.5C  Calm  > 10000m  1010.8 mb           LGEL 022020Z 00000KT CAVOK 23/16 Q1011 
Ioannis Kapodist  39.60N 19.92E  2m  02/09/2015 23:20:00  26.0C  23.0C  84%  27.8C  4 km/h, W (270 degrees)  > 10000m  1011.9 mb           LGKR 022020Z 27002KT CAVOK 26/23 Q1012 NOSIG 
Iraklion (Civ/Af  35.32N 25.17E  39m  02/09/2015 23:20:00  25.0C  21.0C  79%  25.9C  7 km/h, SSE (150 degrees)  > 10000m  1011.9 mb  Few clouds at 610m
 
      LGIR 022020Z 15004KT 9999 FEW020 25/21 Q1012 NOSIG 
Kalamata (Hel-Af  37.07N 22.02E  8m  02/09/2015 22:50:00  24.0C  21.0C  83%  24.1C  Calm  > 10000m  1012.9 mb  Few clouds at 910m
 
      LGKL 021950Z 00000KT 9999 FEW030 24/21 Q1013 
Karpathos  35.42N 27.15E  20m  02/09/2015 20:50:00  25.0C  22.0C  83%  25.8C  17 km/h, WNW (300 degrees)  > 10000m  1011.9 mb           LGKP 021750Z 30009KT CAVOK 25/22 Q1012 
Kavala/Chrisoupo  40.92N 24.62E  5m  02/09/2015 23:20:00  21.0C  18.0C  83%  N/A  7 km/h, N (360 degrees)  > 10000m  1010.2 mb           LGKV 022020Z 36004KT CAVOK 21/18 Q1010 
Kefallinia  38.12N 20.50E  18m  02/09/2015 23:20:00  N/A  N/A  N/A  N/A  6 km/h, Variable    1012.9 mb           LGKF 022020Z AUTO VRB03KT //// // ////// 26/// Q1013 RE// 
Kos Airport  36.80N 27.08E  130m  02/09/2015 23:20:00  24.0C  23.0C  94%  23.2C  Calm  5000m  1011.9 mb  Broken clouds at 30m
 
Mist
 
   LGKO 022020Z 00000KT 5000 BR BKN001 24/23 Q1012 
Kozani (Civ/Army  40.28N 21.85E  630m  02/09/2015 23:20:00  22.0C  10.0C  46%  25.0C  Calm    1013.9 mb           LGKZ 022020Z AUTO 00000KT //// // ////// 22/10 Q1014 RE// 
Limnos Island Ar  39.92N 25.23E  5m  02/09/2015 23:20:00  23.0C  21.0C  89%  22.0C  9 km/h, SSW (200 degrees)    1010.2 mb           LGLM 022020Z AUTO 20005KT //// // ////// 23/21 Q1010 RE// 
Mikonos Island  37.43N 25.35E  120m  02/09/2015 23:20:00  23.0C  22.0C  94%  21.2C  Calm  8000m  1011.9 mb  Few clouds at 150m
 
      LGMK 022020Z 00000KT 8000 FEW005 23/22 Q1012 
Mitilini  39.05N 26.60E  17m  02/09/2015 22:50:00  25.0C  18.0C  65%  26.0C  7 km/h, NNW (340 degrees)  > 10000m  1010.8 mb           LGMT 021950Z 34004KT CAVOK 25/18 Q1011 
Paros  37.00N 25.07E  36m  02/09/2015 20:20:00  25.0C  24.0C  94%  25.5C  7 km/h, SE (140 degrees)    1010.8 mb           LGPA 021720Z AUTO 14004KT //// // ////// 25/24 Q1011 RE// 
Preveza/Aktion  38.62N 20.77E  4m  02/09/2015 22:50:00  27.0C  23.0C  79%  29.6C  17 km/h, WSW (250 degrees)  > 10000m  1011.9 mb  Few clouds at 760m
 
      LGPZ 021950Z 25009KT 9999 FEW025 27/23 Q1012 
Rhodes/Diagoras  36.40N 28.08E  5m  02/09/2015 23:20:00  24.0C  23.0C  94%  23.2C  13 km/h, SW (230 degrees)  > 10000m  1010.8 mb  Few clouds at 550m
 
      LGRP 022020Z 23007KT 9999 FEW018 24/23 Q1011 NOSIG 
Samos Airport  37.68N 26.92E  6m  02/09/2015 20:50:00  26.0C  22.0C  79%  27.6C  Calm  > 10000m  1011.9 mb           LGSM 021750Z 00000KT CAVOK 26/22 Q1012 
Santorini Island  36.40N 25.48E  40m  02/09/2015 23:20:00  25.0C  23.0C  89%  25.7C  17 km/h, WSW (250 degrees)  > 10000m  1011.9 mb  Scattered clouds at 460m
 
      LGSR 022020Z 25009KT 9999 SCT015 25/23 Q1012 
Skiathos Island  39.18N 23.50E  15m  02/09/2015 20:50:00  26.0C  22.0C  79%  27.6C  9 km/h, SSW (200 degrees)  > 10000m  1010.2 mb  Few clouds at 910m
Scattered clouds at 5500m
 
      LGSK 021750Z 20005KT 9999 FEW030 SCT180 26/22 Q1010 
Souda/Khania (Af  35.47N 24.12E  150m  02/09/2015 23:20:00  24.0C  20.0C  78%  24.5C  11 km/h, NW (320 degrees)  > 10000m  1012.9 mb  Few clouds at 610m
Scattered clouds at 2400m
 
      LGSA 022020Z 32006KT 9999 FEW020 SCT080 24/20 Q1013 
Syros  37.42N 24.95E  72m  02/09/2015 23:20:00  23.0C  20.0C  83%  22.8C  2 km/h, Variable    1011.9 mb           LGSO 022020Z AUTO VRB01KT //// // ////// 23/20 Q1012 RE// 
Thessaloniki/Mik  40.52N 22.97E  7m  02/09/2015 23:20:00  22.0C  18.0C  78%  22.5C  7 km/h, E (100 degrees)  > 10000m  1010.2 mb           LGTS 022020Z 10004KT CAVOK 22/18 Q1010 NOSIG 
Zakinthos Airpor  37.75N 20.87E  3m  02/09/2015 23:20:00  22.0C  17.0C  73%  23.1C  2 km/h, Variable    1011.9 mb           LGZA 022020Z AUTO VRB01KT //// // ////// 22/17 Q1012 RE//